Time;durP1;ratioP1;P1;durP2;ratioP2;P2;SDS_P1;SDS_P2;PMS_P1;PMS_P2;Temp;Humidity;BMP_temperature;BMP_pressure;BME280_temperature;BME280_humidity;BME280_pressure;Samples;Min_cycle;Max_cycle;Signal;HPM_P1;HPM_P2
2023/01/01 00:02:34;;;;;;;10.18;6.40;;;;;;;12.80;70.95;100157.24;2211356;79;21028;-85
2023/01/01 00:05:37;;;;;;;9.18;5.78;;;;;;;12.78;70.92;100159.25;2198819;79;21534;-86
2023/01/01 00:08:39;;;;;;;7.83;5.28;;;;;;;12.77;70.84;100162.93;2206747;79;20985;-84
2023/01/01 00:11:41;;;;;;;9.18;5.70;;;;;;;12.76;70.78;100167.43;2181996;80;20989;-84
2023/01/01 00:14:43;;;;;;;8.78;5.62;;;;;;;12.75;70.77;100182.24;2183730;80;20993;-84
2023/01/01 00:17:44;;;;;;;10.10;5.62;;;;;;;12.72;70.73;100178.09;2164421;80;21095;-83
2023/01/01 00:20:46;;;;;;;7.92;5.05;;;;;;;12.73;70.73;100186.94;2200432;79;22242;-84
2023/01/01 00:23:47;;;;;;;7.90;5.10;;;;;;;12.72;70.72;100186.59;2200737;80;21045;-86
2023/01/01 00:26:48;;;;;;;8.55;5.35;;;;;;;12.70;70.63;100193.95;2199756;80;20991;-83
2023/01/01 00:29:50;;;;;;;8.08;4.67;;;;;;;12.69;70.54;100186.45;2205790;80;20977;-85
2023/01/01 00:32:51;;;;;;;6.70;4.78;;;;;;;12.72;70.60;100181.27;2202390;79;21016;-87
2023/01/01 00:35:52;;;;;;;8.25;5.12;;;;;;;12.73;70.54;100184.28;2198872;80;21019;-84
2023/01/01 00:38:54;;;;;;;7.35;4.78;;;;;;;12.74;70.47;100185.41;2199891;80;21016;-84
2023/01/01 00:41:56;;;;;;;7.67;5.00;;;;;;;12.77;70.37;100193.55;2193252;80;21686;-85
2023/01/01 00:44:57;;;;;;;6.70;4.90;;;;;;;12.78;70.36;100188.06;2197822;79;20976;-86
2023/01/01 00:47:58;;;;;;;5.75;4.28;;;;;;;12.80;70.25;100190.52;2196711;80;21028;-86
2023/01/01 00:50:59;;;;;;;6.55;4.78;;;;;;;12.83;70.18;100192.83;2202208;80;21032;-84
2023/01/01 00:54:01;;;;;;;6.58;4.55;;;;;;;12.87;70.08;100195.98;2191092;80;21069;-85
2023/01/01 00:57:02;;;;;;;7.05;4.22;;;;;;;12.92;69.93;100194.44;2203638;80;20988;-84
2023/01/01 01:00:05;;;;;;;6.60;4.67;;;;;;;12.95;69.89;100199.39;2201690;79;21424;-84
2023/01/01 01:03:06;;;;;;;6.67;4.65;;;;;;;12.97;69.59;100204.02;2205816;79;21023;-84
2023/01/01 01:06:11;;;;;;;6.75;4.30;;;;;;;13.04;69.54;100196.66;2198098;79;20992;-85
2023/01/01 01:09:13;;;;;;;5.95;4.35;;;;;;;13.12;69.38;100198.74;2196929;80;20988;-86
2023/01/01 01:12:14;;;;;;;7.17;4.05;;;;;;;13.18;69.20;100209.17;2207610;80;21041;-86
2023/01/01 01:15:15;;;;;;;5.70;4.30;;;;;;;13.21;68.97;100212.30;2190434;79;21030;-85
2023/01/01 01:18:16;;;;;;;6.80;4.85;;;;;;;13.28;68.86;100209.75;2158677;80;21048;-85
2023/01/01 01:21:20;;;;;;;7.67;4.67;;;;;;;13.29;68.61;100207.43;2191480;80;21432;-84
2023/01/01 01:24:21;;;;;;;8.68;4.90;;;;;;;13.31;68.42;100213.89;2190021;80;21048;-83
2023/01/01 01:27:23;;;;;;;6.85;4.80;;;;;;;13.29;68.31;100214.58;2153625;80;21016;-85
2023/01/01 01:30:24;;;;;;;6.25;4.47;;;;;;;13.30;68.29;100221.06;2181553;80;21476;-84
2023/01/01 01:33:25;;;;;;;7.60;4.92;;;;;;;13.29;68.34;100226.56;2197442;80;21036;-85
2023/01/01 01:36:27;;;;;;;7.17;4.60;;;;;;;13.24;68.28;100227.92;2193703;80;21023;-85
2023/01/01 01:39:29;;;;;;;6.87;4.67;;;;;;;13.24;68.30;100227.09;2166274;80;21037;-84
2023/01/01 01:42:30;;;;;;;7.50;4.12;;;;;;;13.27;68.33;100233.94;2189834;79;21432;-85
2023/01/01 01:45:31;;;;;;;5.60;3.65;;;;;;;13.27;68.18;100234.76;2190463;80;22147;-84
2023/01/01 01:48:41;;;;;;;7.33;4.62;;;;;;;13.28;68.25;100237.73;2196953;79;20990;-84
2023/01/01 01:51:43;;;;;;;7.05;4.30;;;;;;;13.32;68.09;100244.37;2194366;80;21045;-85
2023/01/01 01:54:46;;;;;;;5.90;4.80;;;;;;;13.31;68.03;100233.37;2195316;79;21028;-85
2023/01/01 01:57:47;;;;;;;6.53;4.85;;;;;;;13.32;68.00;100235.53;2183805;80;21001;-85
2023/01/01 02:00:49;;;;;;;6.72;4.58;;;;;;;13.31;67.91;100229.88;2194244;80;20965;-84
2023/01/01 02:04:00;;;;;;;6.75;4.05;;;;;;;13.33;67.92;100235.87;2189583;80;20970;-84
2023/01/01 02:07:02;;;;;;;6.35;4.30;;;;;;;13.35;67.73;100238.68;2187524;80;20969;-85
2023/01/01 02:10:04;;;;;;;6.83;4.58;;;;;;;13.38;67.76;100238.31;2192286;80;21036;-86
2023/01/01 02:13:05;;;;;;;5.62;4.08;;;;;;;13.42;67.49;100237.44;2200549;80;20974;-85
2023/01/01 02:16:36;;;;;;;5.97;3.67;;;;;;;13.45;67.43;100237.89;2189207;80;20981;-86
2023/01/01 02:19:47;;;;;;;;;;;;;;;13.50;67.27;100240.02;2175544;81;21032;-85
2023/01/01 02:23:24;;;;;;;5.08;3.30;;;;;;;13.58;67.07;100244.45;2156959;81;20136;-86
2023/01/01 02:26:49;;;;;;;7.05;3.40;;;;;;;13.63;66.93;100238.06;2106365;83;21013;-86
2023/01/01 02:30:04;;;;;;;4.58;3.50;;;;;;;13.73;66.51;100245.26;2102642;83;21513;-83
2023/01/01 02:33:19;;;;;;;4.28;3.27;;;;;;;13.79;66.48;100243.19;2184179;80;21033;-83
2023/01/01 02:36:22;;;;;;;5.10;3.50;;;;;;;13.84;66.20;100245.31;2168361;80;21452;-85
2023/01/01 02:39:28;;;;;;;4.40;3.27;;;;;;;13.88;65.98;100247.91;2183905;80;21048;-84
2023/01/01 02:42:30;;;;;;;4.42;2.70;;;;;;;13.92;65.81;100251.06;2170251;80;21051;-85
2023/01/01 02:45:31;;;;;;;3.65;2.80;;;;;;;13.97;65.59;100244.67;2172057;81;21022;-84
2023/01/01 02:48:46;;;;;;;5.90;3.25;;;;;;;14.01;65.61;100237.42;2162950;82;21053;-84
2023/01/01 02:52:08;;;;;;;3.02;2.72;;;;;;;14.06;65.36;100235.55;2172361;81;21009;-84
2023/01/01 02:55:31;;;;;;;3.92;3.02;;;;;;;14.09;65.09;100245.33;2180817;81;21023;-84
2023/01/01 03:02:27;;;;;;;4.60;3.52;;;;;;;14.07;65.08;100249.19;2184918;80;21516;-85
2023/01/01 03:09:36;;;;;;;3.87;2.60;;;;;;;13.93;65.17;100254.04;2184160;80;20993;-85
2023/01/01 03:12:48;;;;;;;3.25;2.80;;;;;;;13.85;65.27;100251.80;2185342;80;20996;-82
2023/01/01 03:16:16;;;;;;;5.37;3.08;;;;;;;13.79;65.39;100255.19;2169051;80;21096;-82
2023/01/01 03:19:22;;;;;;;4.03;2.83;;;;;;;13.72;65.50;100259.61;2175523;81;20980;-84
2023/01/01 03:22:30;;;;;;;5.58;3.20;;;;;;;13.68;65.49;100250.31;2177927;81;21637;-83
2023/01/01 03:25:36;;;;;;;5.75;3.35;;;;;;;13.64;65.59;100254.37;2179679;81;21153;-85
2023/01/01 03:28:49;;;;;;;3.55;2.77;;;;;;;13.62;65.64;100256.38;2180282;80;21000;-83
2023/01/01 03:31:54;;;;;;;3.55;2.80;;;;;;;13.58;65.65;100257.27;2179288;81;20960;-83
2023/01/01 03:34:57;;;;;;;4.33;3.10;;;;;;;13.55;65.65;100261.63;2176850;82;20996;-83
2023/01/01 03:38:02;;;;;;;5.15;3.60;;;;;;;13.50;65.71;100265.85;2177107;81;21072;-82
2023/01/01 03:41:25;;;;;;;3.85;2.92;;;;;;;13.43;65.76;100271.91;2179958;81;20989;-83
2023/01/01 03:44:35;;;;;;;5.05;3.33;;;;;;;13.39;65.77;100274.60;2174781;81;20976;-85
2023/01/01 03:47:37;;;;;;;5.42;3.10;;;;;;;13.34;65.87;100284.97;2178530;81;20992;-84
2023/01/01 03:51:10;;;;;;;4.45;3.00;;;;;;;13.31;65.89;100282.67;2178963;81;21111;-84
2023/01/01 03:54:28;;;;;;;4.70;3.20;;;;;;;13.27;65.98;100284.05;2179973;81;21469;-85
2023/01/01 03:58:07;;;;;;;3.83;2.65;;;;;;;13.29;65.99;100281.19;2177727;82;20997;-84
2023/01/01 04:01:20;;;;;;;3.70;3.08;;;;;;;13.29;65.99;100288.70;2176721;81;21048;-85
2023/01/01 04:04:21;;;;;;;3.60;3.00;;;;;;;13.33;66.02;100293.98;2177900;80;21490;-83
2023/01/01 04:07:23;;;;;;;5.42;2.75;;;;;;;13.35;65.96;100291.98;2180027;81;21012;-86
2023/01/01 04:10:27;;;;;;;5.58;2.85;;;;;;;13.36;65.94;100296.28;2180136;81;20995;-82
2023/01/01 04:13:28;;;;;;;5.30;2.42;;;;;;;13.38;65.80;100294.28;2179992;81;21546;-83
2023/01/01 04:16:30;;;;;;;5.75;2.60;;;;;;;13.39;65.86;100295.92;2182800;80;21055;-81
2023/01/01 04:19:32;;;;;;;9.48;2.80;;;;;;;13.39;65.78;100305.77;2194965;80;21056;-82
2023/01/01 04:22:34;;;;;;;4.85;2.58;;;;;;;13.37;65.77;100304.59;2190625;80;21057;-82
2023/01/01 04:25:35;;;;;;;3.40;2.52;;;;;;;13.35;65.65;100309.30;2186978;80;21029;-81
2023/01/01 04:28:36;;;;;;;3.10;2.33;;;;;;;13.39;65.62;100314.58;2182774;81;21025;-81
2023/01/01 04:31:37;;;;;;;6.22;2.77;;;;;;;13.40;65.31;100310.92;2185040;80;20962;-82
2023/01/01 04:34:39;;;;;;;4.10;2.58;;;;;;;13.47;65.21;100315.53;2183531;80;21499;-82
2023/01/01 04:37:42;;;;;;;5.60;2.80;;;;;;;13.50;64.43;100303.17;2189077;80;21010;-83
2023/01/01 04:40:43;;;;;;;4.37;3.05;;;;;;;13.59;64.31;100307.41;2189089;81;21005;-84
2023/01/01 04:43:49;;;;;;;4.15;3.05;;;;;;;13.67;64.09;100306.81;2185221;80;20971;-82
2023/01/01 04:46:50;;;;;;;4.08;2.87;;;;;;;13.74;63.52;100310.08;2187077;80;21004;-84
2023/01/01 04:49:53;;;;;;;4.47;2.92;;;;;;;13.77;63.31;100310.56;2188162;80;20988;-82
2023/01/01 04:52:54;;;;;;;4.95;2.98;;;;;;;13.85;63.18;100317.63;2182686;81;21020;-83
2023/01/01 04:55:55;;;;;;;6.17;3.27;;;;;;;13.84;63.16;100321.32;2187821;81;21113;-84
2023/01/01 04:58:57;;;;;;;3.65;2.85;;;;;;;13.86;62.64;100329.47;2184571;80;20997;-83
2023/01/01 05:01:58;;;;;;;3.47;3.00;;;;;;;13.96;62.05;100326.52;2186623;81;21021;-81
2023/01/01 05:04:59;;;;;;;4.22;3.22;;;;;;;14.03;62.12;100335.96;2186225;81;21016;-84
2023/01/01 05:08:01;;;;;;;5.45;3.58;;;;;;;14.08;61.65;100340.25;2187246;80;21508;-82
2023/01/01 05:11:07;;;;;;;5.03;3.10;;;;;;;14.14;60.98;100346.17;2187969;80;21008;-85
2023/01/01 05:14:08;;;;;;;4.58;3.37;;;;;;;14.19;61.29;100342.93;2182640;81;21513;-81
2023/01/01 05:17:09;;;;;;;4.15;2.98;;;;;;;14.20;61.13;100336.09;2191560;80;21040;-81
2023/01/01 05:20:10;;;;;;;4.92;3.30;;;;;;;14.23;60.82;100332.23;2194000;80;21016;-81
2023/01/01 05:23:11;;;;;;;3.33;2.80;;;;;;;14.27;60.76;100340.99;2198126;80;20964;-83
2023/01/01 05:26:17;;;;;;;4.17;3.05;;;;;;;14.30;60.70;100332.64;2199187;80;21032;-82
2023/01/01 05:29:18;;;;;;;4.15;3.00;;;;;;;14.31;60.20;100327.61;2201607;79;21044;-82
2023/01/01 05:32:19;;;;;;;6.33;3.02;;;;;;;14.37;60.15;100335.89;2196089;80;20976;-83
2023/01/01 05:35:21;;;;;;;3.35;2.62;;;;;;;14.38;60.13;100341.55;2201070;80;21008;-83
2023/01/01 05:38:22;;;;;;;5.62;3.10;;;;;;;14.32;59.65;100340.45;2200487;79;20969;-82
2023/01/01 05:41:24;;;;;;;6.40;3.12;;;;;;;14.28;60.12;100346.67;2199735;80;21083;-82
2023/01/01 05:44:24;;;;;;;4.75;2.87;;;;;;;14.19;59.90;100338.93;2198824;80;21013;-82
2023/01/01 05:47:27;;;;;;;5.87;2.80;;;;;;;14.17;60.20;100339.13;2199993;80;20965;-83
2023/01/01 05:50:29;;;;;;;4.65;3.08;;;;;;;14.10;60.14;100347.03;2196147;79;21009;-82
2023/01/01 05:53:30;;;;;;;4.35;3.12;;;;;;;14.06;60.00;100349.75;2193525;80;21005;-82
2023/01/01 05:56:31;;;;;;;4.28;3.02;;;;;;;14.06;59.88;100348.93;2198793;80;21132;-81
2023/01/01 05:59:33;;;;;;;3.72;2.90;;;;;;;14.05;59.51;100348.59;2197076;80;21009;-81
2023/01/01 06:02:34;;;;;;;5.53;2.70;;;;;;;14.05;59.85;100352.59;2190265;79;21009;-83
2023/01/01 06:05:35;;;;;;;4.45;2.70;;;;;;;14.06;59.65;100350.27;2199012;80;20965;-85
2023/01/01 06:08:37;;;;;;;4.75;2.60;;;;;;;14.09;60.05;100361.91;2192012;80;21083;-83
2023/01/01 06:11:38;;;;;;;2.92;2.50;;;;;;;14.05;59.78;100354.78;2199758;80;21297;-82
2023/01/01 06:14:39;;;;;;;4.40;2.70;;;;;;;14.04;59.94;100360.28;2169178;80;20981;-82
2023/01/01 06:17:41;;;;;;;4.22;2.50;;;;;;;14.03;59.94;100358.13;2195828;80;21007;-82
2023/01/01 06:20:42;;;;;;;2.65;2.42;;;;;;;13.98;60.01;100365.02;2189023;80;20997;-82
2023/01/01 06:23:43;;;;;;;4.58;2.85;;;;;;;13.92;59.96;100363.09;2193190;79;20978;-82
2023/01/01 06:26:45;;;;;;;3.17;2.55;;;;;;;13.85;60.16;100350.48;2193579;80;21464;-83
2023/01/01 06:29:46;;;;;;;2.65;2.45;;;;;;;13.85;59.99;100360.30;2187624;80;20990;-82
2023/01/01 06:32:47;;;;;;;4.12;2.72;;;;;;;13.81;59.59;100350.52;2193811;80;21584;-82
2023/01/01 06:35:48;;;;;;;4.08;3.08;;;;;;;13.83;59.95;100350.34;2189303;80;21039;-81
2023/01/01 06:38:54;;;;;;;3.90;2.62;;;;;;;13.82;60.08;100351.34;2190240;80;20946;-83
2023/01/01 06:41:55;;;;;;;4.17;2.60;;;;;;;13.80;59.55;100356.05;2195131;80;21076;-84
2023/01/01 06:44:56;;;;;;;6.25;3.25;;;;;;;13.82;60.18;100362.83;2183131;80;21012;-82
2023/01/01 06:47:57;;;;;;;8.35;2.75;;;;;;;13.81;60.15;100361.70;2195343;80;21535;-84
2023/01/01 06:51:08;;;;;;;4.87;2.55;;;;;;;13.78;60.05;100359.39;2193169;79;21137;-85
2023/01/01 06:54:10;;;;;;;3.87;2.53;;;;;;;13.78;59.89;100364.22;2187291;80;21001;-84
2023/01/01 06:57:11;;;;;;;3.58;2.35;;;;;;;13.76;60.06;100364.89;2184331;80;20985;-84
2023/01/01 07:00:14;;;;;;;3.40;2.27;;;;;;;13.72;60.12;100368.95;2193398;80;21012;-85
2023/01/01 07:03:16;;;;;;;3.98;2.75;;;;;;;13.72;60.20;100371.61;2186560;80;21084;-84
2023/01/01 07:06:17;;;;;;;4.08;2.52;;;;;;;13.71;59.85;100374.45;2187062;80;21518;-82
2023/01/01 07:09:18;;;;;;;3.10;2.33;;;;;;;13.71;60.04;100381.11;2184877;80;21052;-82
2023/01/01 07:12:19;;;;;;;3.52;2.10;;;;;;;13.70;59.88;100386.13;2186581;79;21020;-84
2023/01/01 07:15:20;;;;;;;7.03;3.00;;;;;;;13.70;60.04;100385.63;2191886;79;20997;-82
2023/01/01 07:18:23;;;;;;;4.05;2.77;;;;;;;13.69;60.13;100393.31;2196257;79;21579;-84
2023/01/01 07:21:32;;;;;;;3.00;2.50;;;;;;;13.70;60.18;100394.95;2185424;80;21067;-84
2023/01/01 07:24:33;;;;;;;3.27;2.62;;;;;;;13.74;60.08;100399.42;2200996;80;21000;-86
2023/01/01 07:27:34;;;;;;;4.67;3.22;;;;;;;13.77;60.07;100411.91;2198384;80;21028;-85
2023/01/01 07:30:35;;;;;;;5.50;3.22;;;;;;;13.80;59.87;100408.88;2207283;79;20978;-82
2023/01/01 07:33:37;;;;;;;7.17;4.42;;;;;;;13.83;60.07;100401.84;2190071;80;21552;-83
2023/01/01 07:36:38;;;;;;;7.40;4.25;;;;;;;13.87;59.94;100415.12;2159998;81;20999;-83
2023/01/01 07:39:39;;;;;;;5.87;3.67;;;;;;;13.92;59.92;100415.11;2169297;80;20999;-80
2023/01/01 07:42:40;;;;;;;5.53;3.40;;;;;;;13.95;59.52;100409.41;2198699;79;21510;-85
2023/01/01 07:45:41;;;;;;;5.30;3.50;;;;;;;13.99;59.81;100418.18;2210299;80;21040;-84
2023/01/01 07:48:44;;;;;;;10.25;4.37;;;;;;;14.07;59.66;100428.77;2207200;79;21079;-86
2023/01/01 07:51:45;;;;;;;4.83;3.42;;;;;;;14.22;59.58;100428.81;2164270;80;21492;-86
2023/01/01 07:54:47;;;;;;;3.52;2.50;;;;;;;14.41;59.35;100426.59;2196513;80;21077;-87
2023/01/01 07:57:48;;;;;;;7.92;2.40;;;;;;;14.60;58.92;100428.74;2187354;79;21477;-83
2023/01/01 08:00:50;;;;;;;3.75;1.90;;;;;;;14.77;58.89;100427.52;2196590;80;21012;-84
2023/01/01 08:03:52;;;;;;;3.47;2.67;;;;;;;14.92;58.33;100426.18;2198129;80;21087;-83
2023/01/01 08:06:54;;;;;;;3.05;2.30;;;;;;;15.07;58.00;100434.16;2176326;80;21040;-86
2023/01/01 08:09:55;;;;;;;4.65;2.30;;;;;;;15.19;57.71;100431.30;2201708;80;21064;-85
2023/01/01 08:13:05;;;;;;;3.22;2.80;;;;;;;15.31;58.01;100434.30;2203843;79;20984;-82
2023/01/01 08:16:07;;;;;;;3.33;2.22;;;;;;;15.46;57.77;100436.94;2204769;80;20950;-82
2023/01/01 08:19:08;;;;;;;3.08;2.67;;;;;;;15.63;57.54;100436.16;2205081;80;21056;-84
2023/01/01 08:22:10;;;;;;;4.78;2.58;;;;;;;15.77;56.86;100437.11;2202683;79;21028;-85
2023/01/01 08:25:13;;;;;;;2.77;2.33;;;;;;;15.91;56.02;100428.20;2197858;80;20997;-87
2023/01/01 08:28:14;;;;;;;3.10;2.50;;;;;;;16.07;56.29;100437.25;2200433;79;21560;-87
2023/01/01 08:31:15;;;;;;;3.55;2.50;;;;;;;16.26;56.56;100434.41;2201791;80;20930;-84
2023/01/01 08:34:18;;;;;;;2.62;2.20;;;;;;;16.45;56.18;100442.25;2202667;79;21064;-82
2023/01/01 08:37:21;;;;;;;4.22;2.80;;;;;;;16.64;55.73;100439.86;2198465;80;20993;-82
2023/01/01 08:40:24;;;;;;;3.10;2.40;;;;;;;16.82;55.55;100438.04;2192927;80;21025;-83
2023/01/01 08:43:27;;;;;;;5.45;3.12;;;;;;;17.00;54.85;100441.80;2178897;80;22132;-83
2023/01/01 08:46:28;;;;;;;4.83;3.05;;;;;;;17.12;54.41;100438.05;2194309;79;21005;-86
2023/01/01 08:49:32;;;;;;;3.15;2.42;;;;;;;17.24;54.12;100443.13;2201545;80;21083;-84
2023/01/01 08:52:33;;;;;;;4.08;2.67;;;;;;;17.23;53.22;100438.80;2203086;80;22330;-84
2023/01/01 08:55:35;;;;;;;3.17;2.30;;;;;;;17.24;53.44;100443.65;2194363;79;21567;-85
2023/01/01 08:58:41;;;;;;;4.35;2.50;;;;;;;17.29;52.82;100447.05;2200403;79;21005;-84
2023/01/01 09:02:03;;;;;;;;;;;;;;;;;;;;;
2023/01/01 09:05:01;;;;;;;3.45;2.72;;;;;;;17.37;52.68;100446.37;2189442;80;21052;-86
2023/01/01 09:08:19;;;;;;;4.40;2.87;;;;;;;17.31;52.70;100451.17;2207990;79;21126;-84
2023/01/01 09:11:26;;;;;;;3.22;2.72;;;;;;;17.33;53.00;100456.35;2194309;80;21009;-87
2023/01/01 09:14:28;;;;;;;3.83;2.83;;;;;;;17.26;52.83;100469.75;2203212;80;20993;-85
2023/01/01 09:21:15;;;;;;;5.87;2.85;;;;;;;17.33;52.05;100461.72;2161054;80;21492;-86
2023/01/01 09:33:22;;;;;;;3.83;2.60;;;;;;;17.14;51.58;100464.13;2199303;80;21089;-88
2023/01/01 09:46:02;;;;;;;;;;;;;;;;;;;;;
2023/01/01 09:54:04;;;;;;;4.37;3.17;;;;;;;17.52;50.77;100454.75;1966107;89;21129;-86
2023/01/01 10:09:36;;;;;;;5.53;3.60;;;;;;;17.61;50.27;100452.17;1815708;96;21654;-85
2023/01/01 10:13:15;;;;;;;7.95;3.98;;;;;;;17.61;50.02;100446.81;1886775;84;21031;-84
2023/01/01 10:16:40;;;;;;;4.30;3.20;;;;;;;17.57;50.32;100437.50;2198281;79;20988;-84
2023/01/01 10:19:51;;;;;;;5.60;4.00;;;;;;;17.41;50.25;100442.23;2203615;79;21052;-86
2023/01/01 10:23:04;;;;;;;8.23;4.92;;;;;;;17.33;50.51;100439.73;2209365;80;21036;-84
2023/01/01 10:26:16;;;;;;;6.03;3.55;;;;;;;17.27;50.04;100439.73;2204074;80;20998;-84
2023/01/01 10:29:26;;;;;;;4.45;3.72;;;;;;;17.14;50.54;100445.36;2204485;79;21001;-81
2023/01/01 10:32:34;;;;;;;6.97;3.40;;;;;;;17.10;50.32;100446.80;2201755;79;21124;-83
2023/01/01 10:35:40;;;;;;;4.87;3.37;;;;;;;17.09;50.88;100461.73;2203482;79;21068;-82
2023/01/01 10:38:41;;;;;;;4.78;3.47;;;;;;;16.97;50.89;100469.01;2201793;80;21046;-87
2023/01/01 10:41:44;;;;;;;6.22;4.22;;;;;;;16.90;51.34;100469.52;2198761;79;20926;-83
2023/01/01 10:44:46;;;;;;;5.55;3.60;;;;;;;16.96;51.63;100475.92;2204239;79;21512;-83
2023/01/01 10:48:21;;;;;;;4.60;3.35;;;;;;;16.97;51.94;100470.35;2196114;79;20996;-83
2023/01/01 10:51:25;;;;;;;4.50;3.80;;;;;;;16.86;51.73;100472.26;2201766;80;21088;-84
2023/01/01 10:54:37;;;;;;;6.47;4.45;;;;;;;16.68;52.15;100479.47;2205834;79;21025;-85
2023/01/01 10:57:39;;;;;;;5.10;4.00;;;;;;;16.57;52.58;100483.52;2207982;80;21931;-82
2023/01/01 11:00:40;;;;;;;5.67;3.92;;;;;;;16.51;52.77;100478.95;2200355;80;21013;-82
2023/01/01 11:03:58;;;;;;;7.92;4.30;;;;;;;16.55;52.58;100486.08;2202454;80;20996;-81
2023/01/01 11:07:01;;;;;;;8.33;4.25;;;;;;;16.63;53.01;100478.41;2195033;80;21499;-82
2023/01/01 11:10:06;;;;;;;7.95;4.60;;;;;;;16.76;53.12;100467.77;2202215;80;21028;-81
2023/01/01 11:13:15;;;;;;;7.55;3.90;;;;;;;16.90;52.64;100453.43;2202467;80;21527;-82
2023/01/01 11:16:17;;;;;;;5.53;4.40;;;;;;;16.89;52.57;100457.64;2201373;79;21001;-82
2023/01/01 11:19:35;;;;;;;9.08;4.55;;;;;;;16.77;52.33;100454.70;2205220;79;21547;-83
2023/01/01 11:22:51;;;;;;;8.08;4.83;;;;;;;16.63;52.50;100451.09;2178021;80;21708;-82
2023/01/01 11:26:06;;;;;;;6.47;4.47;;;;;;;16.56;52.91;100452.41;2213233;78;21819;-84
2023/01/01 11:29:19;;;;;;;5.58;4.53;;;;;;;16.54;53.25;100461.67;2179546;80;20946;-85
2023/01/01 11:32:26;;;;;;;7.53;4.08;;;;;;;16.53;53.15;100445.30;2208520;78;21035;-83
2023/01/01 11:35:36;;;;;;;5.78;4.33;;;;;;;16.61;53.35;100442.94;2197486;80;21028;-84
2023/01/01 11:38:37;;;;;;;5.83;4.17;;;;;;;16.69;53.14;100438.25;2215057;79;21020;-87
2023/01/01 11:41:52;;;;;;;5.47;4.37;;;;;;;16.68;53.37;100446.50;2211312;79;20989;-84
2023/01/01 11:45:00;;;;;;;5.60;4.10;;;;;;;16.58;53.14;100444.16;2209724;80;21837;-83
2023/01/01 11:48:08;;;;;;;7.62;3.98;;;;;;;16.46;53.67;100449.25;2212487;80;21056;-82
2023/01/01 11:51:15;;;;;;;5.80;4.55;;;;;;;16.33;53.93;100450.50;2204550;79;20993;-82
2023/01/01 11:54:34;;;;;;;7.30;4.62;;;;;;;16.21;54.06;100441.38;2190148;79;20974;-82
2023/01/01 11:57:38;;;;;;;6.50;4.45;;;;;;;16.17;54.11;100448.16;2185704;80;20958;-81
2023/01/01 12:00:40;;;;;;;5.90;4.17;;;;;;;16.13;54.35;100462.41;2198542;80;21638;-83
2023/01/01 12:04:00;;;;;;;6.22;4.28;;;;;;;16.23;54.64;100458.90;2217381;79;21018;-81
2023/01/01 12:07:15;;;;;;;8.38;4.25;;;;;;;16.39;54.78;100460.94;2198141;79;21048;-83
2023/01/01 12:10:28;;;;;;;6.40;4.58;;;;;;;16.48;54.40;100457.11;2193326;80;21017;-84
2023/01/01 12:13:34;;;;;;;7.58;4.75;;;;;;;16.51;54.71;100462.06;2204779;79;21520;-84
2023/01/01 12:16:49;;;;;;;5.22;4.40;;;;;;;16.55;55.03;100457.44;2179611;80;21055;-85
2023/01/01 12:20:12;;;;;;;7.87;4.53;;;;;;;16.59;55.00;100463.25;2195722;79;21133;-85
2023/01/01 12:23:16;;;;;;;5.55;4.50;;;;;;;16.67;54.82;100461.75;2203040;80;21548;-84
2023/01/01 12:26:51;;;;;;;6.78;4.60;;;;;;;16.70;54.58;100464.55;2203018;80;21499;-82
2023/01/01 12:30:13;;;;;;;8.90;4.20;;;;;;;16.71;54.68;100456.81;2203974;80;20993;-82
2023/01/01 12:33:45;;;;;;;6.90;4.60;;;;;;;16.72;54.65;100452.58;2198007;80;21480;-82
2023/01/01 12:37:21;;;;;;;5.75;3.98;;;;;;;16.74;54.29;100443.02;2193481;80;22074;-83
2023/01/01 12:40:32;;;;;;;6.05;5.12;;;;;;;16.75;54.13;100444.66;2198899;79;21060;-84
2023/01/01 12:43:50;;;;;;;7.90;4.10;;;;;;;16.77;54.30;100446.67;2212199;80;21005;-85
2023/01/01 12:47:27;;;;;;;6.62;4.25;;;;;;;16.73;54.42;100447.55;2206117;79;21053;-84
2023/01/01 12:50:36;;;;;;;5.12;3.65;;;;;;;16.69;53.70;100448.14;2202733;80;21466;-83
2023/01/01 12:53:59;;;;;;;6.03;3.83;;;;;;;16.63;54.10;100454.30;2201424;79;21052;-85
2023/01/01 12:57:30;;;;;;;5.78;4.25;;;;;;;16.57;54.26;100451.38;2206047;78;21112;-83
2023/01/01 13:00:32;;;;;;;6.30;4.10;;;;;;;16.58;54.31;100454.88;2208735;79;21085;-84
2023/01/01 13:03:45;;;;;;;7.10;4.10;;;;;;;16.53;54.36;100456.83;2206482;79;20997;-83
2023/01/01 13:07:00;;;;;;;6.78;4.17;;;;;;;16.50;54.57;100455.89;2205320;80;20977;-84
2023/01/01 13:10:10;;;;;;;11.15;5.03;;;;;;;16.44;54.67;100457.98;2203192;80;21088;-82
2023/01/01 13:13:13;;;;;;;8.53;4.80;;;;;;;16.39;54.64;100460.45;2192502;79;21067;-81
2023/01/01 13:16:34;;;;;;;5.62;4.10;;;;;;;16.28;54.48;100457.80;2202523;80;21461;-84
2023/01/01 13:19:36;;;;;;;7.50;4.20;;;;;;;16.20;54.74;100466.50;2136244;82;21027;-84
2023/01/01 13:22:42;;;;;;;7.53;4.10;;;;;;;16.08;54.90;100467.03;2156786;81;20970;-81
2023/01/01 13:25:43;;;;;;;9.33;4.47;;;;;;;16.00;54.96;100473.86;2161321;79;21514;-81
2023/01/01 13:29:04;;;;;;;9.95;4.00;;;;;;;15.92;55.13;100475.34;2163796;80;21008;-82
2023/01/01 13:32:05;;;;;;;;;;;;;;;15.86;55.34;100480.95;2157216;80;21022;-82
2023/01/01 13:35:14;;;;;;;9.78;4.58;;;;;;;15.83;55.49;100481.85;2160648;79;20413;-83
2023/01/01 13:38:49;;;;;;;9.30;4.87;;;;;;;15.78;55.47;100478.92;2152744;81;21061;-83
2023/01/01 13:41:50;;;;;;;6.50;4.30;;;;;;;15.76;55.77;100479.61;2123914;81;21065;-84
2023/01/01 13:44:52;;;;;;;10.63;4.50;;;;;;;15.69;55.63;100476.89;2160788;81;21097;-82
2023/01/01 13:48:38;;;;;;;7.17;4.55;;;;;;;15.64;55.67;100473.41;2157555;79;21330;-82
2023/01/01 13:51:57;;;;;;;6.78;4.75;;;;;;;15.60;55.67;100483.36;2159118;81;21029;-86
2023/01/01 13:55:36;;;;;;;7.97;4.45;;;;;;;15.54;55.78;100506.83;2159463;81;21007;-85
2023/01/01 13:58:51;;;;;;;7.20;4.67;;;;;;;15.45;56.07;100507.45;2155101;80;20971;-80
2023/01/01 14:02:17;;;;;;;6.30;4.58;;;;;;;15.37;56.24;100515.59;2163435;81;21119;-84
2023/01/01 14:05:36;;;;;;;11.63;5.37;;;;;;;15.30;56.25;100504.01;2164049;79;21021;-82
2023/01/01 14:08:38;;;;;;;10.23;5.60;;;;;;;15.24;56.36;100514.43;2155689;81;21075;-85
2023/01/01 14:11:40;;;;;;;8.98;5.47;;;;;;;15.19;56.48;100521.35;2158190;79;21499;-83
2023/01/01 14:14:41;;;;;;;12.73;6.97;;;;;;;15.14;56.49;100527.77;2149109;79;22187;-83
2023/01/01 14:17:43;;;;;;;9.80;5.70;;;;;;;15.11;56.59;100533.48;2156644;81;21021;-81
2023/01/01 14:20:50;;;;;;;7.97;5.03;;;;;;;15.06;56.58;100528.69;2172629;80;21073;-83
2023/01/01 14:24:02;;;;;;;8.98;5.55;;;;;;;14.99;56.75;100533.13;2194851;80;20972;-83
2023/01/01 14:27:05;;;;;;;10.13;6.17;;;;;;;14.92;56.77;100532.20;2153472;80;21073;-83
2023/01/01 14:30:14;;;;;;;10.38;5.67;;;;;;;14.84;56.86;100533.62;2170143;80;21005;-83
2023/01/01 14:33:28;;;;;;;12.85;5.97;;;;;;;14.78;56.98;100537.86;2194161;80;20984;-84
2023/01/01 14:36:31;;;;;;;15.28;9.00;;;;;;;14.71;57.05;100537.77;2177772;81;20981;-84
2023/01/01 14:39:35;;;;;;;13.83;7.62;;;;;;;14.64;57.15;100526.19;2185645;80;21003;-82
2023/01/01 14:42:37;;;;;;;13.08;6.58;;;;;;;14.57;57.24;100522.58;2185878;81;20997;-85
2023/01/01 14:45:42;;;;;;;11.78;7.17;;;;;;;14.49;57.37;100527.96;2151140;81;21015;-84
2023/01/01 14:48:47;;;;;;;15.28;9.10;;;;;;;14.42;57.47;100524.38;2189807;81;21534;-83
2023/01/01 14:51:53;;;;;;;13.83;7.08;;;;;;;14.37;57.55;100523.58;2184358;81;20974;-83
2023/01/01 14:54:58;;;;;;;10.70;6.40;;;;;;;14.29;57.69;100535.16;2183201;81;21091;-81
2023/01/01 14:58:01;;;;;;;11.08;6.70;;;;;;;14.21;57.82;100533.89;2185806;81;21024;-85
2023/01/01 15:01:23;;;;;;;15.55;8.18;;;;;;;14.14;57.93;100543.64;2186905;81;20989;-81
2023/01/01 15:04:25;;;;;;;13.30;6.08;;;;;;;14.08;58.14;100554.53;2184791;80;21015;-81
2023/01/01 15:07:29;;;;;;;9.23;6.05;;;;;;;13.98;58.36;100549.09;2186274;80;20981;-83
2023/01/01 15:10:35;;;;;;;11.85;6.35;;;;;;;13.87;58.70;100547.16;2184312;80;21012;-84
2023/01/01 15:13:36;;;;;;;11.43;5.92;;;;;;;13.85;58.97;100554.53;2184834;81;21513;-82
2023/01/01 15:16:38;;;;;;;17.17;8.35;;;;;;;13.77;58.93;100560.40;2131109;82;21029;-83
2023/01/01 15:19:45;;;;;;;12.23;6.70;;;;;;;13.64;59.10;100567.66;2131709;81;21013;-82